sensor_id;sensor_type;location;lat;lon;timestamp;pressure;altitude;pressure_sealevel;temperature;humidity
81970;BME280;71469;51.826;4.394;2024-03-08T10:49:15;100875.81;;;4.69;78.14
81970;BME280;71469;51.826;4.394;2024-03-08T10:51:43;101204.34;;;6.78;79.16
81970;BME280;71469;51.826;4.394;2024-03-08T10:54:10;101262.88;;;7.20;78.95
81970;BME280;71469;51.826;4.394;2024-03-08T11:09:36;101180.03;;;7.26;76.75
81970;BME280;71469;51.826;4.394;2024-03-08T11:12:27;101018.88;;;6.36;75.19
81970;BME280;71469;51.826;4.394;2024-03-08T11:15:01;100815.47;;;5.07;76.26
81970;BME280;71469;51.826;4.394;2024-03-08T11:17:50;101022.00;;;6.41;75.27
81970;BME280;71469;51.826;4.394;2024-03-08T11:20:23;100998.63;;;6.30;75.58
81970;BME280;71469;51.826;4.394;2024-03-08T11:23:04;100847.75;;;5.41;74.96
81970;BME280;71469;51.826;4.394;2024-03-08T11:25:53;101024.41;;;6.58;75.32
81970;BME280;71469;51.826;4.394;2024-03-08T11:28:38;101151.22;;;7.48;75.07
81970;BME280;71469;51.826;4.394;2024-03-08T11:33:31;101136.47;;;7.64;75.11
81970;BME280;71469;51.826;4.394;2024-03-08T11:36:13;101083.66;;;7.43;73.37
81970;BME280;71469;51.826;4.394;2024-03-08T11:39:01;100936.94;;;6.71;72.70
81970;BME280;71469;51.826;4.394;2024-03-08T11:41:34;101080.13;;;7.58;73.30
81970;BME280;71469;51.826;4.394;2024-03-08T11:44:05;101210.69;;;8.42;72.67
81970;BME280;71469;51.826;4.394;2024-03-08T11:46:31;101036.28;;;7.44;70.93
81970;BME280;71469;51.826;4.394;2024-03-08T11:48:56;101196.50;;;8.62;71.07
81970;BME280;71469;51.826;4.394;2024-03-08T11:51:22;101025.72;;;7.75;71.38
81970;BME280;71469;51.826;4.394;2024-03-08T11:53:50;101046.72;;;7.96;71.10
81970;BME280;71469;51.826;4.394;2024-03-08T11:56:16;101181.84;;;8.87;71.06
81970;BME280;71469;51.826;4.394;2024-03-08T11:58:41;100910.72;;;7.19;69.91
81970;BME280;71469;51.826;4.394;2024-03-08T12:01:07;101168.84;;;9.02;67.56
81970;BME280;71469;51.826;4.394;2024-03-08T12:03:34;101101.13;;;8.71;69.18
81970;BME280;71469;51.826;4.394;2024-03-08T12:06:00;101153.13;;;9.17;66.95
81970;BME280;71469;51.826;4.394;2024-03-08T12:19:54;101091.47;;;9.36;67.04
81970;BME280;71469;51.826;4.394;2024-03-08T12:22:24;101125.19;;;9.71;64.23
81970;BME280;71469;51.826;4.394;2024-03-08T12:25:03;101103.31;;;9.52;65.51
81970;BME280;71469;51.826;4.394;2024-03-08T12:27:36;100757.97;;;7.55;66.07
81970;BME280;71469;51.826;4.394;2024-03-08T12:32:59;101121.53;;;9.86;63.38
81970;BME280;71469;51.826;4.394;2024-03-08T12:35:27;101000.69;;;9.16;65.26
81970;BME280;71469;51.826;4.394;2024-03-08T12:37:55;101040.00;;;9.44;65.30
81970;BME280;71469;51.826;4.394;2024-03-08T12:40:31;101034.91;;;9.56;63.53
81970;BME280;71469;51.826;4.394;2024-03-08T12:43:00;101031.50;;;9.55;64.30
81970;BME280;71469;51.826;4.394;2024-03-08T12:45:25;101102.28;;;10.14;63.96
81970;BME280;71469;51.826;4.394;2024-03-08T12:47:51;101041.63;;;9.82;64.05
81970;BME280;71469;51.826;4.394;2024-03-08T12:50:18;100816.19;;;8.69;63.88
81970;BME280;71469;51.826;4.394;2024-03-08T12:52:44;101022.19;;;10.11;63.89
81970;BME280;71469;51.826;4.394;2024-03-08T12:55:09;101084.75;;;10.52;60.15
81970;BME280;71469;51.826;4.394;2024-03-08T12:57:35;100401.69;;;6.28;63.25
81970;BME280;71469;51.826;4.394;2024-03-08T13:00:03;100659.78;;;8.18;62.54
81970;BME280;71469;51.826;4.394;2024-03-08T13:02:31;101030.91;;;10.45;61.71
81970;BME280;71469;51.826;4.394;2024-03-08T13:04:58;100814.56;;;9.27;61.28
81970;BME280;71469;51.826;4.394;2024-03-08T13:07:24;101075.13;;;10.88;61.25
81970;BME280;71469;51.826;4.394;2024-03-08T13:09:54;100992.63;;;10.37;61.02
81970;BME280;71469;51.826;4.394;2024-03-08T13:12:21;100735.13;;;8.83;60.33
81970;BME280;71469;51.826;4.394;2024-03-08T13:14:47;100929.97;;;10.21;60.28
81970;BME280;71469;51.826;4.394;2024-03-08T13:17:15;100966.28;;;10.66;60.77
81970;BME280;71469;51.826;4.394;2024-03-08T13:28:28;100833.78;;;10.26;58.75
81970;BME280;71469;51.826;4.394;2024-03-08T13:31:04;101061.63;;;11.72;58.38
81970;BME280;71469;51.826;4.394;2024-03-08T13:33:35;100529.09;;;8.63;58.03
81970;BME280;71469;51.826;4.394;2024-03-08T13:36:08;100556.34;;;9.11;57.19
81970;BME280;71469;51.826;4.394;2024-03-08T13:38:46;100706.06;;;10.25;56.89
81970;BME280;71469;51.826;4.394;2024-03-08T13:41:12;100859.50;;;11.46;56.42
81970;BME280;71469;51.826;4.394;2024-03-08T13:43:42;100958.88;;;12.10;56.80
81970;BME280;71469;51.826;4.394;2024-03-08T13:46:08;100484.22;;;9.19;56.15
81970;BME280;71469;51.826;4.394;2024-03-08T13:48:35;101003.16;;;12.81;55.99
81970;BME280;71469;51.826;4.394;2024-03-08T13:51:03;100946.84;;;12.70;55.26
81970;BME280;71469;51.826;4.394;2024-03-08T13:53:28;100923.34;;;12.71;55.35
81970;BME280;71469;51.826;4.394;2024-03-08T13:55:54;100868.25;;;12.47;54.30
81970;BME280;71469;51.826;4.394;2024-03-08T13:58:22;100897.63;;;12.88;54.65
81970;BME280;71469;51.826;4.394;2024-03-08T14:00:47;100865.41;;;12.69;54.40
81970;BME280;71469;51.826;4.394;2024-03-08T14:03:15;100601.38;;;11.20;54.64
81970;BME280;71469;51.826;4.394;2024-03-08T14:05:43;100948.28;;;13.52;54.75
81970;BME280;71469;51.826;4.394;2024-03-08T14:08:10;100970.09;;;13.70;53.59
81970;BME280;71469;51.826;4.394;2024-03-08T14:10:37;100093.69;;;8.28;53.33
81970;BME280;71469;51.826;4.394;2024-03-08T14:13:04;100805.38;;;12.92;53.57
81970;BME280;71469;51.826;4.394;2024-03-08T14:15:34;100839.88;;;12.94;52.74
81970;BME280;71469;51.826;4.394;2024-03-08T14:18:00;100596.25;;;11.70;52.94
81970;BME280;71469;51.826;4.394;2024-03-08T14:20:26;100747.34;;;12.72;53.21
81970;BME280;71469;51.826;4.394;2024-03-08T14:22:53;100932.06;;;13.97;52.83
81970;BME280;71469;51.826;4.394;2024-03-08T14:25:20;100768.81;;;12.93;52.53
81970;BME280;71469;51.826;4.394;2024-03-08T14:39:07;100841.91;;;14.13;51.81
81970;BME280;71469;51.826;4.394;2024-03-08T14:41:33;100893.97;;;14.42;51.59
81970;BME280;71469;51.826;4.394;2024-03-08T14:43:59;100358.13;;;10.95;52.31
81970;BME280;71469;51.826;4.394;2024-03-08T14:46:25;100482.56;;;11.83;51.82
81970;BME280;71469;51.826;4.394;2024-03-08T14:48:52;100714.56;;;13.27;51.45
81970;BME280;71469;51.826;4.394;2024-03-08T14:51:19;100895.66;;;14.33;51.75
81970;BME280;71469;51.826;4.394;2024-03-08T14:53:52;100900.16;;;14.22;51.34
81970;BME280;71469;51.826;4.394;2024-03-08T14:56:17;100528.91;;;11.87;51.04
81970;BME280;71469;51.826;4.394;2024-03-08T14:58:44;100738.28;;;13.24;50.69
81970;BME280;71469;51.826;4.394;2024-03-08T15:01:10;100712.28;;;13.05;51.38
81970;BME280;71469;51.826;4.394;2024-03-08T15:03:39;100878.41;;;14.04;51.42
81970;BME280;71469;51.826;4.394;2024-03-08T15:06:05;100866.94;;;13.97;51.85
81970;BME280;71469;51.826;4.394;2024-03-08T15:08:38;100639.53;;;12.57;51.07
81970;BME280;71469;51.826;4.394;2024-03-08T15:11:05;100819.34;;;13.48;51.29
81970;BME280;71469;51.826;4.394;2024-03-08T15:13:35;100671.50;;;12.67;51.65
81970;BME280;71469;51.826;4.394;2024-03-08T15:16:07;100669.63;;;12.69;50.76
81970;BME280;71469;51.826;4.394;2024-03-08T15:18:34;100415.31;;;11.13;51.87
81970;BME280;71469;51.826;4.394;2024-03-08T15:21:00;100715.56;;;12.97;51.42
81970;BME280;71469;51.826;4.394;2024-03-08T15:23:26;100510.72;;;11.78;50.95
81970;BME280;71469;51.826;4.394;2024-03-08T15:25:52;100852.91;;;13.61;51.41
81970;BME280;71469;51.826;4.394;2024-03-08T15:28:19;100756.50;;;13.05;51.41
81970;BME280;71469;51.826;4.394;2024-03-08T15:30:48;100752.41;;;12.93;51.05
81970;BME280;71469;51.826;4.394;2024-03-08T15:33:20;100485.72;;;10.98;52.14
81970;BME280;71469;51.826;4.394;2024-03-08T15:35:51;100780.47;;;12.99;52.22
81970;BME280;71469;51.826;4.394;2024-03-08T15:38:24;100327.53;;;10.20;52.08
81970;BME280;71469;51.826;4.394;2024-03-08T15:40:53;100791.66;;;12.99;52.23
81970;BME280;71469;51.826;4.394;2024-03-08T15:43:19;100565.03;;;11.41;51.96
81970;BME280;71469;51.826;4.394;2024-03-08T15:45:45;100783.19;;;12.59;52.51
81970;BME280;71469;51.826;4.394;2024-03-08T15:48:12;100853.25;;;12.70;53.11
81970;BME280;71469;51.826;4.394;2024-03-08T15:50:38;100347.53;;;9.47;53.82
81970;BME280;71469;51.826;4.394;2024-03-08T15:53:04;100718.28;;;11.49;53.89
81970;BME280;71469;51.826;4.394;2024-03-08T15:55:29;100513.41;;;10.17;54.83
81970;BME280;71469;51.826;4.394;2024-03-08T15:57:55;100682.97;;;11.06;55.34
81970;BME280;71469;51.826;4.394;2024-03-08T16:00:21;100828.44;;;11.77;55.43
81970;BME280;71469;51.826;4.394;2024-03-08T16:03:03;100720.34;;;10.83;55.81
81970;BME280;71469;51.826;4.394;2024-03-08T16:05:34;100672.31;;;10.47;56.15
81970;BME280;71469;51.826;4.394;2024-03-08T16:08:00;100822.19;;;11.27;56.93
81970;BME280;71469;51.826;4.394;2024-03-08T16:10:27;100697.56;;;10.34;56.87
81970;BME280;71469;51.826;4.394;2024-03-08T16:12:56;100837.78;;;10.95;57.15
81970;BME280;71469;51.826;4.394;2024-03-08T16:15:21;100757.34;;;10.42;57.84
81970;BME280;71469;51.826;4.394;2024-03-08T16:17:47;100823.00;;;10.75;58.18
81970;BME280;71469;51.826;4.394;2024-03-08T16:20:16;100649.06;;;9.60;58.41
81970;BME280;71469;51.826;4.394;2024-03-08T16:22:45;100817.75;;;10.54;58.54
81970;BME280;71469;51.826;4.394;2024-03-08T16:25:11;100728.34;;;9.94;58.61
81970;BME280;71469;51.826;4.394;2024-03-08T16:27:40;100750.00;;;9.82;58.97
81970;BME280;71469;51.826;4.394;2024-03-08T16:30:07;100662.38;;;9.33;59.23
81970;BME280;71469;51.826;4.394;2024-03-08T16:35:15;100710.81;;;9.54;59.36
81970;BME280;71469;51.826;4.394;2024-03-08T16:37:44;100795.66;;;9.94;59.73
81970;BME280;71469;51.826;4.394;2024-03-08T16:40:13;100678.44;;;9.15;59.76
81970;BME280;71469;51.826;4.394;2024-03-08T16:42:46;100739.72;;;9.36;59.99
